createdAt,value
2022-11-15T00:00:53.475Z,5.70
2022-11-15T00:03:22.688Z,5.70
2022-11-15T00:05:49.657Z,5.70
2022-11-15T00:08:16.755Z,5.70
2022-11-15T00:10:43.998Z,5.70
2022-11-15T00:13:12.839Z,5.70
2022-11-15T00:15:41.207Z,5.70
2022-11-15T00:18:15.717Z,5.60
2022-11-15T00:20:42.493Z,5.60
2022-11-15T00:23:09.215Z,5.60
2022-11-15T00:25:36.280Z,5.50
2022-11-15T00:28:03.451Z,5.50
2022-11-15T00:30:30.153Z,5.60
2022-11-15T00:32:56.923Z,5.60
2022-11-15T00:35:23.621Z,5.60
2022-11-15T00:37:50.258Z,5.60
2022-11-15T00:40:17.088Z,5.50
2022-11-15T00:42:43.752Z,5.60
2022-11-15T00:45:10.801Z,5.50
2022-11-15T00:47:37.597Z,5.50
2022-11-15T00:50:05.153Z,5.50
2022-11-15T00:52:31.992Z,5.50
2022-11-15T00:54:58.666Z,5.40
2022-11-15T00:57:25.358Z,5.40
2022-11-15T00:59:52.041Z,5.40
2022-11-15T01:02:18.762Z,5.40
2022-11-15T01:04:45.472Z,5.40
2022-11-15T01:07:12.382Z,5.30
2022-11-15T01:09:39.132Z,5.30
2022-11-15T01:12:05.972Z,5.40
2022-11-15T01:14:32.618Z,5.40
2022-11-15T01:16:59.468Z,5.40
2022-11-15T01:19:26.144Z,5.30
2022-11-15T01:21:53.100Z,5.30
2022-11-15T01:24:19.823Z,5.30
2022-11-15T01:26:46.497Z,5.30
2022-11-15T01:29:13.165Z,5.30
2022-11-15T01:31:39.864Z,5.30
2022-11-15T01:34:06.552Z,5.30
2022-11-15T01:36:33.223Z,5.30
2022-11-15T01:39:00.353Z,5.30
2022-11-15T01:41:30.333Z,5.30
2022-11-15T01:44:16.862Z,5.30
2022-11-15T01:46:48.211Z,5.30
2022-11-15T01:49:21.509Z,5.30
2022-11-15T01:51:48.514Z,5.30
2022-11-15T01:54:18.580Z,5.20
2022-11-15T01:56:56.601Z,5.20
2022-11-15T01:59:23.798Z,5.20
2022-11-15T02:01:51.379Z,5.20
2022-11-15T02:04:22.710Z,5.20
2022-11-15T02:06:49.830Z,5.20
2022-11-15T02:09:17.863Z,5.20
2022-11-15T02:11:46.503Z,5.20
2022-11-15T02:14:16.718Z,5.20
2022-11-15T02:17:06.777Z,5.20
2022-11-15T02:19:33.368Z,5.20
2022-11-15T02:22:37.934Z,5.10
2022-11-15T02:25:32.015Z,5.10
2022-11-15T02:28:23.478Z,5.10
2022-11-15T02:30:56.102Z,5.10
2022-11-15T02:33:44.457Z,5.10
2022-11-15T02:36:14.819Z,5.10
2022-11-15T02:39:03.680Z,5.10
2022-11-15T02:41:40.747Z,5.10
2022-11-15T02:44:25.938Z,5.10
2022-11-15T02:46:56.393Z,5.10
2022-11-15T02:49:25.930Z,5.10
2022-11-15T02:51:55.680Z,5.10
2022-11-15T02:54:27.736Z,5.10
2022-11-15T02:56:59.759Z,5.10
2022-11-15T02:59:37.930Z,5.10
2022-11-15T03:02:23.188Z,5.10
2022-11-15T03:04:55.988Z,5.10
2022-11-15T03:07:52.017Z,5.10
2022-11-15T03:10:21.819Z,5.10
2022-11-15T03:13:05.683Z,5.10
2022-11-15T03:15:38.261Z,5.00
2022-11-15T03:18:28.635Z,5.00
2022-11-15T03:20:56.533Z,5.00
2022-11-15T03:23:23.653Z,5.00
2022-11-15T03:25:53.461Z,5.00
2022-11-15T03:28:34.900Z,5.00
2022-11-15T03:31:04.493Z,5.00
2022-11-15T03:33:31.922Z,5.00
2022-11-15T03:35:59.654Z,5.00
2022-11-15T03:38:30.703Z,5.00
2022-11-15T03:41:04.600Z,5.00
2022-11-15T03:43:49.329Z,5.00
2022-11-15T03:46:24.673Z,5.00
2022-11-15T03:48:57.541Z,5.00
2022-11-15T03:51:24.328Z,5.00
2022-11-15T03:53:51.505Z,5.00
2022-11-15T03:56:18.174Z,5.00
2022-11-15T03:58:44.820Z,5.00
2022-11-15T04:01:11.508Z,4.90
2022-11-15T04:03:38.242Z,5.00
2022-11-15T04:06:05.086Z,5.00
2022-11-15T04:08:31.716Z,5.00
2022-11-15T04:10:59.010Z,5.00
2022-11-15T04:13:25.709Z,5.00
2022-11-15T04:15:52.707Z,5.00
2022-11-15T04:18:19.443Z,5.00
2022-11-15T04:20:46.099Z,5.00
2022-11-15T04:23:17.160Z,5.00
2022-11-15T04:25:45.149Z,5.00
2022-11-15T04:28:12.395Z,5.00
2022-11-15T04:30:39.470Z,4.90
2022-11-15T04:33:06.170Z,5.00
2022-11-15T04:35:33.470Z,5.00
2022-11-15T04:38:00.578Z,5.00
2022-11-15T04:40:27.285Z,5.00
2022-11-15T04:42:54.901Z,4.90
2022-11-15T04:45:22.982Z,4.90
2022-11-15T04:47:49.803Z,4.90
2022-11-15T04:50:17.445Z,4.90
2022-11-15T04:52:51.963Z,4.90
2022-11-15T04:55:18.880Z,4.90
2022-11-15T04:57:45.529Z,4.90
2022-11-15T05:00:14.997Z,4.90
2022-11-15T05:02:41.688Z,4.90
2022-11-15T05:05:08.761Z,4.90
2022-11-15T05:07:35.537Z,4.90
2022-11-15T05:10:02.209Z,4.90
2022-11-15T05:12:28.892Z,4.90
2022-11-15T05:14:55.580Z,4.90
2022-11-15T05:17:22.188Z,4.90
2022-11-15T05:19:48.843Z,4.90
2022-11-15T05:22:15.476Z,4.90
2022-11-15T05:24:42.106Z,4.90
2022-11-15T05:27:08.751Z,5.00
2022-11-15T05:29:35.432Z,4.90
2022-11-15T05:32:02.099Z,5.00
2022-11-15T05:34:28.749Z,5.00
2022-11-15T05:36:55.476Z,4.90
2022-11-15T05:39:22.192Z,4.90
2022-11-15T05:42:03.571Z,5.00
2022-11-15T05:44:31.518Z,5.00
2022-11-15T05:46:58.432Z,5.00
2022-11-15T05:49:30.931Z,5.00
2022-11-15T05:51:58.860Z,5.00
2022-11-15T05:54:25.870Z,5.00
2022-11-15T05:56:53.277Z,5.00
2022-11-15T05:59:20.383Z,5.00
2022-11-15T06:01:47.093Z,5.00
2022-11-15T06:04:13.761Z,5.00
2022-11-15T06:06:40.389Z,5.00
2022-11-15T06:09:07.042Z,5.00
2022-11-15T06:11:33.718Z,5.00
2022-11-15T06:14:00.392Z,5.00
2022-11-15T06:16:27.038Z,5.00
2022-11-15T06:18:53.731Z,5.00
2022-11-15T06:21:21.048Z,5.00
2022-11-15T06:23:47.684Z,5.00
2022-11-15T06:26:14.390Z,5.00
2022-11-15T06:28:41.117Z,5.00
2022-11-15T06:31:10.680Z,5.00
2022-11-15T06:33:37.719Z,5.00
2022-11-15T06:36:06.892Z,5.00
2022-11-15T06:38:33.908Z,5.00
2022-11-15T06:41:08.873Z,5.00
2022-11-15T06:43:36.340Z,5.10
2022-11-15T06:46:05.318Z,5.10
2022-11-15T06:48:33.693Z,5.10
2022-11-15T06:51:02.015Z,5.10
2022-11-15T06:53:29.345Z,5.10
2022-11-15T06:56:04.889Z,5.10
2022-11-15T06:58:32.124Z,5.10
2022-11-15T07:01:05.609Z,5.10
2022-11-15T07:03:33.137Z,5.10
2022-11-15T07:06:06.813Z,5.20
2022-11-15T07:08:34.901Z,5.20
2022-11-15T07:11:03.684Z,5.20
2022-11-15T07:13:32.075Z,5.20
2022-11-15T07:15:58.902Z,5.20
2022-11-15T07:18:25.569Z,5.30
2022-11-15T07:20:52.244Z,5.30
2022-11-15T07:23:18.995Z,5.30
2022-11-15T07:25:46.114Z,5.40
2022-11-15T07:28:13.847Z,5.40
2022-11-15T07:30:45.067Z,5.40
2022-11-15T07:33:12.093Z,5.40
2022-11-15T07:35:38.930Z,5.50
2022-11-15T07:38:05.605Z,5.50
2022-11-15T07:40:33.014Z,5.50
2022-11-15T07:43:04.367Z,5.60
2022-11-15T07:45:31.568Z,5.60
2022-11-15T07:47:58.264Z,5.70
2022-11-15T07:50:25.314Z,5.70
2022-11-15T07:52:57.171Z,5.70
2022-11-15T07:55:25.944Z,5.80
2022-11-15T07:57:52.840Z,5.80
2022-11-15T08:00:20.453Z,5.90
2022-11-15T08:02:47.247Z,5.90
2022-11-15T08:05:14.065Z,5.90
2022-11-15T08:07:40.733Z,6.00
2022-11-15T08:10:08.132Z,6.00
2022-11-15T08:12:34.950Z,6.00
2022-11-15T08:15:01.756Z,6.10
2022-11-15T08:17:28.457Z,6.10
2022-11-15T08:19:55.259Z,6.10
2022-11-15T08:22:21.958Z,6.20
2022-11-15T08:24:48.615Z,6.20
2022-11-15T08:27:15.302Z,6.30
2022-11-15T08:29:45.537Z,6.30
2022-11-15T08:32:12.504Z,6.40
2022-11-15T08:34:39.735Z,6.40
2022-11-15T08:37:06.630Z,6.40
2022-11-15T08:39:33.451Z,6.50
2022-11-15T08:42:00.475Z,6.50
2022-11-15T08:44:27.158Z,6.60
2022-11-15T08:46:53.817Z,6.60
2022-11-15T08:49:20.516Z,6.70
2022-11-15T08:51:47.231Z,6.70
2022-11-15T08:54:13.881Z,6.80
2022-11-15T08:56:40.645Z,6.80
2022-11-15T08:59:07.453Z,6.90
2022-11-15T09:01:34.152Z,6.90
2022-11-15T09:04:00.962Z,6.90
2022-11-15T09:06:27.659Z,7.00
2022-11-15T09:08:54.395Z,7.00
2022-11-15T09:11:21.260Z,7.00
2022-11-15T09:13:48.254Z,7.10
2022-11-15T09:16:14.976Z,7.10
2022-11-15T09:18:42.088Z,7.20
2022-11-15T09:21:09.935Z,7.20
2022-11-15T09:23:36.772Z,7.20
2022-11-15T09:26:04.911Z,7.30
2022-11-15T09:28:32.778Z,7.30
2022-11-15T09:31:04.547Z,7.40
2022-11-15T09:33:32.426Z,7.40
2022-11-15T09:36:04.772Z,7.50
2022-11-15T09:38:32.165Z,7.60
2022-11-15T09:41:18.928Z,7.60
2022-11-15T09:44:26.032Z,7.70
2022-11-15T09:47:00.328Z,7.70
2022-11-15T09:49:27.267Z,7.70
2022-11-15T09:51:55.534Z,7.80
2022-11-15T09:57:52.082Z,7.90
2022-11-15T10:00:48.611Z,7.90
2022-11-15T10:03:34.748Z,8.00
2022-11-15T10:06:03.721Z,8.00
2022-11-15T10:08:55.353Z,8.10
2022-11-15T10:11:40.324Z,8.20
2022-11-15T10:14:28.216Z,8.20
2022-11-15T10:17:00.128Z,8.30
2022-11-15T10:20:16.871Z,8.30
2022-11-15T10:22:55.392Z,8.40
2022-11-15T10:25:24.949Z,8.50
2022-11-15T10:27:56.866Z,8.50
2022-11-15T10:30:25.022Z,8.60
2022-11-15T10:32:51.737Z,8.60
2022-11-15T10:35:28.340Z,8.70
2022-11-15T10:38:10.512Z,8.70
2022-11-15T10:40:38.631Z,8.80
2022-11-15T10:43:07.221Z,8.80
2022-11-15T10:45:34.748Z,8.90
2022-11-15T10:48:13.486Z,8.90
2022-11-15T10:50:42.881Z,8.90
2022-11-15T10:53:42.879Z,9.00
2022-11-15T10:56:14.850Z,9.00
2022-11-15T10:58:51.198Z,9.10
2022-11-15T11:01:24.143Z,9.10
2022-11-15T11:04:01.762Z,9.10
2022-11-15T11:06:29.042Z,9.20
2022-11-15T11:09:01.457Z,9.20
2022-11-15T11:11:48.929Z,9.30
2022-11-15T11:14:24.472Z,9.30
2022-11-15T11:16:53.981Z,9.40
2022-11-15T11:19:32.258Z,9.40
2022-11-15T11:22:54.750Z,9.50
2022-11-15T11:25:36.671Z,9.50
2022-11-15T11:28:26.525Z,9.60
2022-11-15T11:31:07.965Z,9.60
2022-11-15T11:33:42.970Z,9.60
2022-11-15T11:39:31.042Z,9.80
2022-11-15T11:42:14.469Z,9.80
2022-11-15T11:44:58.534Z,9.90
2022-11-15T11:47:32.498Z,10.00
2022-11-15T11:50:05.095Z,10.10
2022-11-15T11:53:03.949Z,10.20
2022-11-15T11:55:37.906Z,10.30
2022-11-15T11:58:22.885Z,10.30
2022-11-15T12:00:58.874Z,10.40
2022-11-15T12:03:28.464Z,10.50
2022-11-15T12:06:07.373Z,10.60
2022-11-15T12:08:48.111Z,10.70
2022-11-15T12:11:39.630Z,10.80
2022-11-15T12:14:17.273Z,10.90
2022-11-15T12:16:44.257Z,11.00
2022-11-15T12:19:11.061Z,11.10
2022-11-15T12:21:48.810Z,11.20
2022-11-15T12:24:15.499Z,11.40
2022-11-15T12:26:55.573Z,11.50
2022-11-15T12:29:36.333Z,11.50
2022-11-15T12:32:03.751Z,11.70
2022-11-15T12:34:41.591Z,11.80
2022-11-15T12:37:47.183Z,11.90
2022-11-15T12:41:00.180Z,12.10
2022-11-15T12:43:44.782Z,12.20
2022-11-15T12:46:29.874Z,12.30
2022-11-15T12:49:28.627Z,12.50
2022-11-15T12:51:58.519Z,12.60
2022-11-15T12:54:25.129Z,12.70
2022-11-15T12:57:06.025Z,12.80
2022-11-15T12:59:55.393Z,12.90
2022-11-15T13:02:35.886Z,13.00
2022-11-15T13:05:14.647Z,13.10
2022-11-15T13:07:41.345Z,13.20
2022-11-15T13:10:11.072Z,13.20
2022-11-15T13:12:46.918Z,13.30
2022-11-15T13:15:13.476Z,13.40
2022-11-15T13:17:54.320Z,13.50
2022-11-15T13:20:32.498Z,13.60
2022-11-15T13:23:14.399Z,13.70
2022-11-15T13:26:01.446Z,13.70
2022-11-15T13:28:43.014Z,13.80
2022-11-15T13:31:35.437Z,13.90
2022-11-15T13:34:49.400Z,13.90
2022-11-15T13:37:28.054Z,13.90
2022-11-15T13:39:54.901Z,14.00
2022-11-15T13:42:22.274Z,14.00
2022-11-15T13:45:02.745Z,14.10
2022-11-15T13:47:30.701Z,14.10
2022-11-15T13:50:01.408Z,14.10
2022-11-15T13:52:34.537Z,14.20
2022-11-15T13:55:06.172Z,14.20
2022-11-15T13:57:44.434Z,14.20
2022-11-15T14:00:29.668Z,14.10
2022-11-15T14:03:05.770Z,14.00
2022-11-15T14:05:32.506Z,13.80
2022-11-15T14:08:13.368Z,13.70
2022-11-15T14:10:40.825Z,13.50
2022-11-15T14:13:30.177Z,13.40
2022-11-15T14:16:14.366Z,13.20
2022-11-15T14:18:44.094Z,13.00
2022-11-15T14:21:11.225Z,12.90
2022-11-15T14:23:37.911Z,12.70
2022-11-15T14:26:11.271Z,12.60
2022-11-15T14:28:38.739Z,12.50
2022-11-15T14:31:13.259Z,12.40
2022-11-15T14:33:41.488Z,12.30
2022-11-15T14:36:13.571Z,12.20
2022-11-15T14:38:41.449Z,12.10
2022-11-15T14:41:19.218Z,12.00
2022-11-15T14:43:46.136Z,11.90
2022-11-15T14:46:21.863Z,11.80
2022-11-15T14:48:50.024Z,11.80
2022-11-15T14:51:22.239Z,11.70
2022-11-15T14:53:51.899Z,11.60
2022-11-15T14:56:18.673Z,11.50
2022-11-15T14:58:45.386Z,11.50
2022-11-15T15:01:22.480Z,11.40
2022-11-15T15:03:49.329Z,11.30
2022-11-15T15:06:18.264Z,11.20
2022-11-15T15:08:48.461Z,11.20
2022-11-15T15:11:21.687Z,11.10
2022-11-15T15:13:52.574Z,11.10
2022-11-15T15:16:20.443Z,11.00
2022-11-15T15:18:47.549Z,11.00
2022-11-15T15:21:47.512Z,10.90
2022-11-15T15:24:17.093Z,10.90
2022-11-15T15:26:44.591Z,10.80
2022-11-15T15:29:11.530Z,10.70
2022-11-15T15:31:39.564Z,10.70
2022-11-15T15:34:06.959Z,10.60
2022-11-15T15:36:39.465Z,10.60
2022-11-15T15:39:06.358Z,10.50
2022-11-15T15:41:33.124Z,10.50
2022-11-15T15:44:00.006Z,10.40
2022-11-15T15:46:26.750Z,10.40
2022-11-15T15:48:53.633Z,10.30
2022-11-15T15:51:20.939Z,10.30
2022-11-15T15:53:48.909Z,10.30
2022-11-15T15:56:15.927Z,10.20
2022-11-15T15:58:42.746Z,10.20
2022-11-15T16:01:09.690Z,10.20
2022-11-15T16:03:36.417Z,10.10
2022-11-15T16:06:03.535Z,10.10
2022-11-15T16:08:42.603Z,10.10
2022-11-15T16:11:17.177Z,10.10
2022-11-15T16:13:44.009Z,10.00
2022-11-15T16:16:14.474Z,10.00
2022-11-15T16:18:41.352Z,10.00
2022-11-15T16:21:09.772Z,9.90
2022-11-15T16:23:36.702Z,9.90
2022-11-15T16:26:08.022Z,9.80
2022-11-15T16:28:35.274Z,9.80
2022-11-15T16:31:02.202Z,9.70
2022-11-15T16:33:29.211Z,9.70
2022-11-15T16:35:56.021Z,9.60
2022-11-15T16:38:23.006Z,9.60
2022-11-15T16:40:50.112Z,9.60
2022-11-15T16:43:16.812Z,9.50
2022-11-15T16:45:43.951Z,9.50
2022-11-15T16:48:28.134Z,9.40
2022-11-15T16:50:58.963Z,9.40
2022-11-15T16:53:27.613Z,9.30
2022-11-15T16:55:55.583Z,9.30
2022-11-15T16:58:22.581Z,9.20
2022-11-15T17:00:56.822Z,9.20
2022-11-15T17:03:24.923Z,9.10
2022-11-15T17:05:52.060Z,9.10
2022-11-15T17:08:19.075Z,9.00
2022-11-15T17:10:45.830Z,8.90
2022-11-15T17:13:13.314Z,8.90
2022-11-15T17:15:40.562Z,8.90
2022-11-15T17:18:07.277Z,8.80
2022-11-15T17:20:33.933Z,8.80
2022-11-15T17:23:00.685Z,8.70
2022-11-15T17:25:27.318Z,8.70
2022-11-15T17:27:55.936Z,8.70
2022-11-15T17:30:22.598Z,8.60
2022-11-15T17:32:49.262Z,8.60
2022-11-15T17:35:18.006Z,8.50
2022-11-15T17:37:44.730Z,8.50
2022-11-15T17:40:11.814Z,8.40
2022-11-15T17:42:41.227Z,8.40
2022-11-15T17:45:10.305Z,8.40
2022-11-15T17:47:39.673Z,8.30
2022-11-15T17:50:06.393Z,8.30
2022-11-15T17:52:33.104Z,8.30
2022-11-15T17:54:59.753Z,8.30
2022-11-15T17:57:26.481Z,8.20
2022-11-15T17:59:53.557Z,8.20
2022-11-15T18:02:23.738Z,8.20
2022-11-15T18:04:53.592Z,8.10
2022-11-15T18:07:21.046Z,8.10
2022-11-15T18:09:51.912Z,8.10
2022-11-15T18:12:20.807Z,8.10
2022-11-15T18:14:47.572Z,8.10
2022-11-15T18:17:19.686Z,8.00
2022-11-15T18:19:48.961Z,8.00
2022-11-15T18:22:15.911Z,8.00
2022-11-15T18:24:42.644Z,8.00
2022-11-15T18:27:09.779Z,7.90
2022-11-15T18:29:36.615Z,7.90
2022-11-15T18:32:04.823Z,7.80
2022-11-15T18:34:34.870Z,7.80
2022-11-15T18:37:02.150Z,7.80
2022-11-15T18:39:29.877Z,7.80
2022-11-15T18:41:56.735Z,7.80
2022-11-15T18:44:23.519Z,7.70
2022-11-15T18:46:50.158Z,7.70
2022-11-15T18:49:17.010Z,7.70
2022-11-15T18:51:44.062Z,7.70
2022-11-15T18:54:12.518Z,7.60
2022-11-15T18:56:39.801Z,7.60
2022-11-15T18:59:06.688Z,7.60
2022-11-15T19:01:38.868Z,7.50
2022-11-15T19:04:08.520Z,7.50
2022-11-15T19:06:41.853Z,7.50
2022-11-15T19:09:09.978Z,7.40
2022-11-15T19:11:38.484Z,7.40
2022-11-15T19:14:13.368Z,7.40
2022-11-15T19:16:42.690Z,7.40
2022-11-15T19:19:14.947Z,7.40
2022-11-15T19:21:42.226Z,7.40
2022-11-15T19:24:09.367Z,7.40
2022-11-15T19:26:36.430Z,7.40
2022-11-15T19:29:04.042Z,7.40
2022-11-15T19:31:31.744Z,7.40
2022-11-15T19:34:03.030Z,7.40
2022-11-15T19:36:32.585Z,7.50
2022-11-15T19:39:01.412Z,7.40
2022-11-15T19:41:28.166Z,7.50
2022-11-15T19:43:54.827Z,7.50
2022-11-15T19:46:23.235Z,7.40
2022-11-15T19:48:51.020Z,7.50
2022-11-15T19:51:20.687Z,7.40
2022-11-15T19:53:48.247Z,7.50
2022-11-15T19:56:16.965Z,7.50
2022-11-15T19:58:44.255Z,7.50
2022-11-15T20:01:21.211Z,7.50
2022-11-15T20:03:49.477Z,7.50
2022-11-15T20:06:18.487Z,7.50
2022-11-15T20:08:46.344Z,7.50
2022-11-15T20:11:13.724Z,7.60
2022-11-15T20:13:40.804Z,7.50
2022-11-15T20:16:07.863Z,7.50
2022-11-15T20:18:35.172Z,7.50
2022-11-15T20:21:02.317Z,7.50
2022-11-15T20:23:29.256Z,7.50
2022-11-15T20:25:55.940Z,7.50
2022-11-15T20:28:24.817Z,7.50
2022-11-15T20:30:53.935Z,7.50
2022-11-15T20:33:25.141Z,7.50
2022-11-15T20:35:52.502Z,7.50
2022-11-15T20:38:19.401Z,7.50
2022-11-15T20:40:46.824Z,7.50
2022-11-15T20:43:16.385Z,7.50
2022-11-15T20:45:46.500Z,7.50
2022-11-15T20:48:13.927Z,7.50
2022-11-15T20:50:43.588Z,7.50
2022-11-15T20:53:17.643Z,7.50
2022-11-15T20:55:47.920Z,7.50
2022-11-15T20:58:18.719Z,7.50
2022-11-15T21:00:46.888Z,7.50
2022-11-15T21:03:14.513Z,7.50
2022-11-15T21:05:42.951Z,7.50
2022-11-15T21:08:14.378Z,7.50
2022-11-15T21:10:41.873Z,7.50
2022-11-15T21:13:08.717Z,7.50
2022-11-15T21:15:37.285Z,7.50
2022-11-15T21:18:04.223Z,7.40
2022-11-15T21:20:36.327Z,7.40
2022-11-15T21:23:03.194Z,7.50
2022-11-15T21:25:30.109Z,7.40
2022-11-15T21:27:56.823Z,7.50
2022-11-15T21:30:23.829Z,7.50
2022-11-15T21:32:53.904Z,7.40
2022-11-15T21:35:20.583Z,7.40
2022-11-15T21:37:51.861Z,7.50
2022-11-15T21:40:22.053Z,7.40
2022-11-15T21:42:48.657Z,7.40
2022-11-15T21:45:15.492Z,7.40
2022-11-15T21:47:46.113Z,7.40
2022-11-15T21:50:13.696Z,7.40
2022-11-15T21:52:40.865Z,7.40
2022-11-15T21:55:09.661Z,7.40
2022-11-15T21:57:36.411Z,7.40
2022-11-15T22:00:04.359Z,7.40
2022-11-15T22:02:31.129Z,7.40
2022-11-15T22:04:57.923Z,7.40
2022-11-15T22:07:24.675Z,7.40
2022-11-15T22:09:51.539Z,7.40
2022-11-15T22:12:18.209Z,7.30
2022-11-15T22:14:44.877Z,7.30
2022-11-15T22:17:11.697Z,7.30
2022-11-15T22:19:51.774Z,7.30
2022-11-15T22:22:19.232Z,7.30
2022-11-15T22:24:45.801Z,7.30
2022-11-15T22:27:12.547Z,7.30
2022-11-15T22:29:39.228Z,7.30
2022-11-15T22:32:05.818Z,7.30
2022-11-15T22:34:32.487Z,7.30
2022-11-15T22:37:19.639Z,7.30
2022-11-15T22:39:45.835Z,7.30
2022-11-15T22:42:12.540Z,7.20
2022-11-15T22:44:39.195Z,7.30
2022-11-15T22:47:05.819Z,7.30
2022-11-15T22:49:32.549Z,7.30
2022-11-15T22:51:59.268Z,7.30
2022-11-15T22:54:25.904Z,7.30
2022-11-15T22:56:52.676Z,7.30
2022-11-15T22:59:19.312Z,7.20
2022-11-15T23:01:45.913Z,7.20
2022-11-15T23:04:13.133Z,7.20
2022-11-15T23:06:39.720Z,7.20
2022-11-15T23:09:06.448Z,7.10
2022-11-15T23:11:33.086Z,7.10
2022-11-15T23:13:59.748Z,7.10
2022-11-15T23:16:26.382Z,7.10
2022-11-15T23:19:10.160Z,7.10
2022-11-15T23:21:54.894Z,7.10
2022-11-15T23:24:22.265Z,7.10
2022-11-15T23:26:50.765Z,7.00
2022-11-15T23:29:19.758Z,7.00
2022-11-15T23:31:46.681Z,7.00
2022-11-15T23:34:13.703Z,7.00
2022-11-15T23:36:42.227Z,7.00
2022-11-15T23:39:09.198Z,6.90
2022-11-15T23:41:36.093Z,6.90
2022-11-15T23:44:03.225Z,6.90
2022-11-15T23:46:30.197Z,6.80
2022-11-15T23:48:56.825Z,6.80
2022-11-15T23:51:23.506Z,6.70
2022-11-15T23:53:50.113Z,6.70
2022-11-15T23:56:18.395Z,6.70
2022-11-15T23:58:46.177Z,6.70
